Time,TemperatureF,DewpointF,PressureIn,WindDirection,WindDirectionDegrees,WindSpeedMPH,WindSpeedGustMPH,Humidity,HourlyPrecipIn,Conditions,Clouds,dailyrainin,SoftwareType,DateUTC
2016-10-01 00:03:00,59.2,59.2,30.09,NNW,343,0.0,0.0,100,0.47,,OVC014,0.00,VWS V13.01,2016-10-01 04:03:00,
2016-10-01 00:08:00,59.2,59.2,30.09,SW,223,6.9,8.1,100,0.47,,OVC014,0.00,VWS V13.01,2016-10-01 04:08:00,
2016-10-01 00:13:00,59.4,59.4,30.12,SW,221,0.0,8.1,100,0.47,,OVC014,0.00,VWS V13.01,2016-10-01 04:13:00,
2016-10-01 00:18:00,59.4,59.4,30.12,SW,221,0.0,3.8,100,0.24,,OVC014,0.00,VWS V13.01,2016-10-01 04:18:00,
2016-10-01 00:23:00,59.4,59.4,30.12,SW,221,0.0,3.8,100,0.24,,OVC014,0.00,VWS V13.01,2016-10-01 04:23:00,
2016-10-01 00:28:00,59.2,59.2,30.12,SW,221,0.0,3.8,100,0.24,,OVC014,0.00,VWS V13.01,2016-10-01 04:28:00,
2016-10-01 00:33:00,59.4,59.4,30.12,SW,221,0.0,0.0,100,0.04,,OVC014,0.00,VWS V13.01,2016-10-01 04:33:00,
2016-10-01 00:38:00,59.4,59.4,30.12,SW,221,0.0,0.0,100,0.04,,OVC014,0.00,VWS V13.01,2016-10-01 04:38:00,
2016-10-01 00:43:00,59.4,59.4,30.09,SW,221,0.0,0.0,100,0.04,,OVC014,0.00,VWS V13.01,2016-10-01 04:43:00,
2016-10-01 00:48:00,59.4,59.4,30.09,NNW,336,4.4,5.6,100,0.00,,OVC014,0.00,VWS V13.01,2016-10-01 04:48:00,
2016-10-01 00:53:00,59.2,59.2,30.09,NNW,335,0.0,5.6,100,0.00,,OVC014,0.00,VWS V13.01,2016-10-01 04:53:00,
2016-10-01 01:03:00,59.2,59.2,30.12,NNW,327,0.0,4.4,100,0.00,,OVC012,0.00,VWS V13.01,2016-10-01 05:03:00,
2016-10-01 01:08:00,59.2,59.2,30.12,NNW,328,0.0,4.4,100,0.00,,OVC012,0.00,VWS V13.01,2016-10-01 05:08:00,
2016-10-01 01:13:00,59.2,59.2,30.12,NNW,328,0.0,4.4,100,0.00,,OVC012,0.00,VWS V13.01,2016-10-01 05:13:00,
2016-10-01 01:18:00,59.2,59.2,30.12,NE,40,0.0,5.6,100,0.00,,OVC012,0.00,VWS V13.01,2016-10-01 05:18:00,
2016-10-01 01:23:00,59.2,59.2,30.12,NE,42,0.0,5.6,100,0.00,,OVC012,0.00,VWS V13.01,2016-10-01 05:23:00,
2016-10-01 01:28:00,59.2,59.2,30.12,NE,41,0.0,5.6,100,0.00,,OVC012,0.00,VWS V13.01,2016-10-01 05:28:00,
2016-10-01 01:33:00,59.2,59.2,30.12,NE,40,0.0,0.0,100,0.00,,OVC012,0.00,VWS V13.01,2016-10-01 05:33:00,
2016-10-01 01:38:00,59.2,59.2,30.12,NE,40,0.0,0.0,100,0.00,,OVC012,0.00,VWS V13.01,2016-10-01 05:38:00,
2016-10-01 01:43:00,59.2,59.2,30.12,NE,41,0.0,4.4,100,0.00,,OVC012,0.00,VWS V13.01,2016-10-01 05:43:00,
2016-10-01 01:48:00,59.2,59.2,30.12,NE,41,0.0,0.0,100,0.00,,OVC012,0.00,VWS V13.01,2016-10-01 05:48:00,
2016-10-01 01:53:00,59.4,59.4,30.12,NE,41,0.0,3.8,100,0.00,,OVC012,0.00,VWS V13.01,2016-10-01 05:53:00,
2016-10-01 01:58:00,59.4,59.4,30.12,NE,39,0.0,3.8,100,0.00,,OVC012,0.00,VWS V13.01,2016-10-01 05:58:00,
2016-10-01 02:03:00,59.4,59.4,30.12,NE,39,0.0,0.0,100,0.00,,OVC009,0.00,VWS V13.01,2016-10-01 06:03:00,
2016-10-01 02:08:00,59.2,59.2,30.12,NE,38,0.0,0.0,100,0.00,,OVC009,0.00,VWS V13.01,2016-10-01 06:08:00,
2016-10-01 02:13:00,59.2,59.2,30.12,NE,40,3.8,5.6,100,0.00,,OVC009,0.00,VWS V13.01,2016-10-01 06:13:00,
2016-10-01 02:18:00,59.2,59.2,30.12,NW,314,0.0,4.4,100,0.00,,OVC009,0.00,VWS V13.01,2016-10-01 06:18:00,
2016-10-01 02:23:00,59.2,59.2,30.12,NW,316,0.0,4.4,100,0.00,,OVC009,0.00,VWS V13.01,2016-10-01 06:23:00,
2016-10-01 02:28:00,59.2,59.2,30.12,NW,316,0.0,4.4,100,0.00,,OVC009,0.00,VWS V13.01,2016-10-01 06:28:00,
2016-10-01 02:33:00,59.2,59.2,30.12,NW,314,0.0,0.0,100,0.00,,OVC009,0.00,VWS V13.01,2016-10-01 06:33:00,
2016-10-01 02:38:00,59.2,59.2,30.12,NW,314,0.0,0.0,100,0.00,,OVC009,0.00,VWS V13.01,2016-10-01 06:38:00,
2016-10-01 02:43:00,59.2,59.2,30.09,NE,36,0.0,4.4,100,0.00,,OVC009,0.00,VWS V13.01,2016-10-01 06:43:00,
2016-10-01 02:48:00,59.2,59.2,30.09,NE,35,0.0,0.0,100,0.00,,OVC009,0.00,VWS V13.01,2016-10-01 06:48:00,
2016-10-01 02:53:00,59.2,59.2,30.09,NE,38,0.0,0.0,100,0.00,,OVC009,0.00,VWS V13.01,2016-10-01 06:53:00,
2016-10-01 02:58:00,59.2,59.2,30.12,NE,36,0.0,0.0,100,0.00,,OVC009,0.00,VWS V13.01,2016-10-01 06:58:00,
2016-10-01 03:03:00,59.2,59.2,30.12,NE,37,0.0,0.0,100,0.00,,OVC009,0.00,VWS V13.01,2016-10-01 07:03:00,
2016-10-01 03:08:00,59.2,59.2,30.12,NE,38,0.0,0.0,100,0.00,,OVC009,0.00,VWS V13.01,2016-10-01 07:08:00,
2016-10-01 03:13:00,59.2,59.2,30.09,NE,38,0.0,0.0,100,0.00,,OVC009,0.00,VWS V13.01,2016-10-01 07:13:00,
2016-10-01 03:18:00,59.2,59.2,30.09,NE,38,0.0,0.0,100,0.00,,OVC009,0.00,VWS V13.01,2016-10-01 07:18:00,
2016-10-01 03:23:00,59.2,59.2,30.09,NW,322,0.0,5.0,100,0.00,,OVC009,0.00,VWS V13.01,2016-10-01 07:23:00,
2016-10-01 03:28:00,59.2,59.2,30.12,NNW,339,0.0,5.0,100,0.00,,OVC009,0.00,VWS V13.01,2016-10-01 07:28:00,
2016-10-01 03:33:00,59.2,59.2,30.12,NNW,342,4.4,5.0,100,0.00,,OVC009,0.00,VWS V13.01,2016-10-01 07:33:00,
2016-10-01 03:38:00,59.2,59.2,30.12,NNW,342,0.0,5.0,100,0.00,,OVC009,0.00,VWS V13.01,2016-10-01 07:38:00,
2016-10-01 03:43:00,59.0,59.0,30.12,NNW,342,0.0,5.0,100,0.00,,OVC009,0.00,VWS V13.01,2016-10-01 07:43:00,
2016-10-01 03:48:00,59.0,59.0,30.12,NNE,20,0.0,5.6,100,0.00,,OVC009,0.00,VWS V13.01,2016-10-01 07:48:00,
2016-10-01 03:53:00,59.0,59.0,30.12,NNE,17,0.0,5.6,100,0.00,,OVC009,0.00,VWS V13.01,2016-10-01 07:53:00,
2016-10-01 03:58:00,59.0,59.0,30.09,NNE,17,0.0,5.6,100,0.00,,OVC009,0.00,VWS V13.01,2016-10-01 07:58:00,
2016-10-01 04:03:00,59.0,59.0,30.09,NNE,28,4.4,6.9,100,0.00,,OVC010,0.00,VWS V13.01,2016-10-01 08:03:00,
2016-10-01 04:08:00,59.0,59.0,30.09,NE,38,0.0,6.9,100,0.00,,OVC010,0.00,VWS V13.01,2016-10-01 08:08:00,
2016-10-01 04:13:00,59.0,59.0,30.09,NE,37,0.0,6.9,100,0.00,,OVC010,0.00,VWS V13.01,2016-10-01 08:13:00,
2016-10-01 04:18:00,59.0,59.0,30.09,NE,39,0.0,0.0,100,0.00,,OVC010,0.00,VWS V13.01,2016-10-01 08:18:00,
2016-10-01 04:23:00,59.0,59.0,30.09,NE,36,0.0,0.0,100,0.00,,OVC010,0.00,VWS V13.01,2016-10-01 08:23:00,
2016-10-01 04:28:00,59.0,59.0,30.12,NE,39,0.0,0.0,100,0.00,,OVC010,0.00,VWS V13.01,2016-10-01 08:28:00,
2016-10-01 04:33:00,59.2,59.2,30.12,NE,40,0.0,0.0,100,0.00,,OVC010,0.00,VWS V13.01,2016-10-01 08:33:00,
2016-10-01 04:38:00,59.2,59.2,30.12,NE,37,0.0,0.0,100,0.00,,OVC010,0.00,VWS V13.01,2016-10-01 08:38:00,
2016-10-01 04:43:00,59.4,59.4,30.12,NE,38,0.0,0.0,100,0.00,,OVC010,0.00,VWS V13.01,2016-10-01 08:43:00,
2016-10-01 04:48:00,59.4,59.4,30.12,NE,36,0.0,0.0,100,0.00,,OVC010,0.00,VWS V13.01,2016-10-01 08:48:00,
2016-10-01 04:53:00,59.4,59.4,30.12,NE,36,0.0,0.0,100,0.00,,OVC010,0.00,VWS V13.01,2016-10-01 08:53:00,
2016-10-01 04:58:00,59.4,59.4,30.12,NE,36,0.0,0.0,100,0.00,,OVC010,0.00,VWS V13.01,2016-10-01 08:58:00,
2016-10-01 05:03:00,59.4,59.4,30.12,NE,35,0.0,0.0,100,0.00,,OVC010,0.00,VWS V13.01,2016-10-01 09:03:00,
2016-10-01 05:08:00,59.4,59.4,30.12,NW,316,5.0,5.0,100,0.00,,OVC010,0.00,VWS V13.01,2016-10-01 09:08:00,
2016-10-01 05:13:00,59.4,59.4,30.12,NW,314,0.0,5.6,100,0.00,,OVC010,0.00,VWS V13.01,2016-10-01 09:13:00,
2016-10-01 05:18:00,59.2,59.2,30.12,NE,38,0.0,4.4,100,0.00,,OVC010,0.00,VWS V13.01,2016-10-01 09:18:00,
2016-10-01 05:23:00,59.2,59.2,30.12,NE,36,4.4,5.0,100,0.00,,OVC010,0.00,VWS V13.01,2016-10-01 09:23:00,
2016-10-01 05:28:00,59.2,59.2,30.12,NE,40,0.0,5.0,100,0.00,,OVC010,0.00,VWS V13.01,2016-10-01 09:28:00,
2016-10-01 05:33:00,59.4,59.4,30.12,NE,40,0.0,0.0,100,0.00,,OVC010,0.00,VWS V13.01,2016-10-01 09:33:00,
2016-10-01 05:38:00,59.4,59.4,30.12,NE,39,0.0,0.0,100,0.00,,OVC010,0.00,VWS V13.01,2016-10-01 09:38:00,
2016-10-01 05:43:00,59.4,59.4,30.12,NE,38,0.0,0.0,100,0.00,,OVC010,0.00,VWS V13.01,2016-10-01 09:43:00,
2016-10-01 05:48:00,59.4,59.4,30.12,NE,39,0.0,0.0,100,0.00,,OVC010,0.00,VWS V13.01,2016-10-01 09:48:00,
2016-10-01 05:53:00,59.4,59.4,30.12,NE,40,0.0,0.0,100,0.00,,OVC010,0.00,VWS V13.01,2016-10-01 09:53:00,
2016-10-01 05:58:00,59.5,59.5,30.12,NE,38,0.0,0.0,100,0.00,,OVC010,0.00,VWS V13.01,2016-10-01 09:58:00,
2016-10-01 06:03:00,59.5,59.5,30.12,NE,36,0.0,0.0,100,0.00,,OVC011,0.00,VWS V13.01,2016-10-01 10:03:00,
2016-10-01 06:08:00,59.4,59.4,30.12,NW,323,0.0,4.4,100,0.00,,OVC011,0.00,VWS V13.01,2016-10-01 10:08:00,
2016-10-01 06:13:00,59.4,59.4,30.12,NW,323,0.0,4.4,100,0.00,,OVC011,0.00,VWS V13.01,2016-10-01 10:13:00,
2016-10-01 06:18:00,59.4,59.4,30.12,NW,323,0.0,0.0,100,0.00,,OVC011,0.00,VWS V13.01,2016-10-01 10:18:00,
2016-10-01 06:23:00,59.4,59.4,30.12,NE,46,6.9,6.9,100,0.00,,OVC011,0.00,VWS V13.01,2016-10-01 10:23:00,
2016-10-01 06:33:00,59.2,59.2,30.12,NE,39,0.0,6.3,100,0.00,,OVC011,0.00,VWS V13.01,2016-10-01 10:33:00,
2016-10-01 06:38:00,59.2,59.2,30.12,NE,37,0.0,6.3,100,0.00,,OVC011,0.00,VWS V13.01,2016-10-01 10:38:00,
2016-10-01 06:43:00,59.2,59.2,30.12,NNE,32,0.0,6.3,100,0.00,,OVC011,0.00,VWS V13.01,2016-10-01 10:43:00,
2016-10-01 06:48:00,59.2,59.2,30.12,North,6,0.0,6.3,100,0.00,,OVC011,0.00,VWS V13.01,2016-10-01 10:48:00,
2016-10-01 06:53:00,59.2,59.2,30.12,NNE,19,0.0,6.3,100,0.00,,OVC011,0.00,VWS V13.01,2016-10-01 10:53:00,
2016-10-01 06:58:00,59.4,59.4,30.12,NNE,29,0.0,6.3,100,0.00,,OVC011,0.00,VWS V13.01,2016-10-01 10:58:00,
2016-10-01 07:03:00,59.4,59.4,30.12,NNE,19,4.4,5.0,100,0.00,,OVC010,0.00,VWS V13.01,2016-10-01 11:03:00,
2016-10-01 07:08:00,59.4,59.4,30.12,NNE,26,0.0,5.0,100,0.00,,OVC010,0.00,VWS V13.01,2016-10-01 11:08:00,
2016-10-01 07:13:00,59.4,59.4,30.12,NNE,22,0.0,5.0,100,0.00,,OVC010,0.00,VWS V13.01,2016-10-01 11:13:00,
2016-10-01 07:18:00,59.4,59.4,30.12,NW,307,0.0,0.0,100,0.00,,OVC010,0.00,VWS V13.01,2016-10-01 11:18:00,
2016-10-01 07:23:00,59.4,59.4,30.12,NW,309,0.0,0.0,100,0.00,,OVC010,0.00,VWS V13.01,2016-10-01 11:23:00,
2016-10-01 07:28:00,59.5,59.5,30.12,NW,309,0.0,0.0,100,0.00,,OVC010,0.00,VWS V13.01,2016-10-01 11:28:00,
2016-10-01 07:38:00,59.5,59.5,30.12,North,358,0.0,4.4,100,0.00,,OVC010,0.00,VWS V13.01,2016-10-01 11:38:00,
2016-10-01 07:43:00,59.5,59.5,30.12,ENE,63,0.0,5.0,100,0.00,,OVC010,0.00,VWS V13.01,2016-10-01 11:43:00,
2016-10-01 07:48:00,59.5,59.5,30.12,ENE,61,0.0,0.0,100,0.00,,OVC010,0.00,VWS V13.01,2016-10-01 11:48:00,
2016-10-01 07:53:00,59.5,59.5,30.12,NE,44,0.0,5.0,100,0.00,,OVC010,0.00,VWS V13.01,2016-10-01 11:53:00,
2016-10-01 07:58:00,59.7,59.7,30.12,NE,46,0.0,5.0,100,0.00,,OVC010,0.00,VWS V13.01,2016-10-01 11:58:00,
2016-10-01 08:03:00,59.9,59.9,30.12,NE,41,0.0,0.0,100,0.00,,OVC008,0.00,VWS V13.01,2016-10-01 12:03:00,
2016-10-01 08:08:00,60.1,60.1,30.12,NE,50,0.0,0.0,100,0.00,,OVC008,0.00,VWS V13.01,2016-10-01 12:08:00,
2016-10-01 08:13:00,60.1,60.1,30.12,NE,44,0.0,0.0,100,0.00,,OVC008,0.00,VWS V13.01,2016-10-01 12:13:00,
2016-10-01 08:18:00,60.1,60.1,30.12,NE,43,0.0,0.0,100,0.00,,OVC008,0.00,VWS V13.01,2016-10-01 12:18:00,
2016-10-01 08:28:00,60.3,60.3,30.15,SW,218,0.0,4.4,100,0.00,,OVC008,0.00,VWS V13.01,2016-10-01 12:28:00,
2016-10-01 08:33:00,60.3,60.3,30.15,SW,218,0.0,0.0,100,0.00,,OVC008,0.00,VWS V13.01,2016-10-01 12:33:00,
2016-10-01 08:38:00,60.3,60.3,30.15,ENE,59,0.0,3.8,100,0.00,,OVC008,0.00,VWS V13.01,2016-10-01 12:38:00,
2016-10-01 08:43:00,60.4,60.4,30.12,North,11,0.0,4.4,100,0.00,,OVC008,0.00,VWS V13.01,2016-10-01 12:43:00,
2016-10-01 08:48:00,60.4,60.4,30.12,NNE,28,0.0,8.8,100,0.00,,OVC008,0.00,VWS V13.01,2016-10-01 12:48:00,
2016-10-01 08:53:00,60.6,60.6,30.12,NE,35,0.0,8.8,100,0.00,,OVC008,0.00,VWS V13.01,2016-10-01 12:53:00,